Time;durP1;ratioP1;P1;durP2;ratioP2;P2;SDS_P1;SDS_P2;PMS_P1;PMS_P2;Temp;Humidity;BMP_temperature;BMP_pressure;BME280_temperature;BME280_humidity;BME280_pressure;Samples;Min_cycle;Max_cycle;Signal;HPM_P1;HPM_P2
2022/05/07 00:01:54;;;;;;;;;8.25;8.00;;;;;16.88;51.89;102130.75;5039419;28;46471;-67
2022/05/07 00:04:19;;;;;;;;;6.00;5.75;;;;;16.76;53.63;102139.00;5038967;28;45385;-68
2022/05/07 00:06:44;;;;;;;;;6.50;6.00;;;;;16.64;53.57;102138.44;5038136;28;45345;-67
2022/05/07 00:09:10;;;;;;;;;11.00;9.75;;;;;16.56;54.25;102132.56;5042154;28;45259;-67
2022/05/07 00:11:35;;;;;;;;;9.50;8.00;;;;;16.57;53.94;102125.53;5043178;28;45418;-67
2022/05/07 00:14:01;;;;;;;;;9.50;6.75;;;;;16.51;54.77;102123.97;5042177;28;45409;-68
2022/05/07 00:19:10;;;;;;;;;6.75;6.75;;;;;16.44;54.30;102122.44;5047088;28;45426;-68
2022/05/07 00:21:35;;;;;;;;;9.25;8.00;;;;;16.48;54.13;102128.44;5042488;28;46072;-68
2022/05/07 00:24:02;;;;;;;;;11.75;9.25;;;;;16.38;57.15;102125.22;5040901;28;45572;-68
2022/05/07 00:26:27;;;;;;;;;11.25;10.75;;;;;16.27;57.25;102117.69;5036200;28;45292;-68
2022/05/07 00:28:53;;;;;;;;;8.25;8.25;;;;;16.23;56.83;102116.06;5044951;28;45142;-67
2022/05/07 00:31:18;;;;;;;;;10.50;10.50;;;;;16.16;57.63;102113.63;5049399;28;46442;-68
2022/05/07 00:33:43;;;;;;;;;8.75;8.25;;;;;16.12;57.45;102120.75;5049423;28;45441;-68
2022/05/07 00:36:09;;;;;;;;;8.25;7.75;;;;;16.07;56.56;102105.16;5049366;28;45269;-68
2022/05/07 00:38:34;;;;;;;;;14.50;9.50;;;;;16.03;56.75;102106.13;5049362;28;46661;-68
2022/05/07 00:41:00;;;;;;;;;10.75;9.75;;;;;16.02;57.47;102107.06;5050696;28;45382;-68
2022/05/07 00:43:33;;;;;;;;;9.50;9.50;;;;;15.94;58.48;102101.13;5050594;28;45410;-67
2022/05/07 00:45:58;;;;;;;;;12.75;8.00;;;;;15.89;59.48;102110.91;5050307;28;45358;-68
2022/05/07 00:48:25;;;;;;;;;10.75;10.00;;;;;15.84;59.44;102101.47;5050215;28;45300;-68
2022/05/07 00:53:36;;;;;;;;;14.50;9.75;;;;;15.72;59.65;102105.25;5049001;28;45807;-67
2022/05/07 00:56:01;;;;;;;;;10.00;8.75;;;;;15.70;60.20;102107.91;5050595;28;45530;-67
2022/05/07 00:58:27;;;;;;;;;10.00;10.00;;;;;15.71;59.17;102098.28;5050280;28;45398;-67
2022/05/07 01:00:53;;;;;;;;;12.25;10.25;;;;;15.70;60.37;102096.56;5049271;28;45431;-68
2022/05/07 01:03:19;;;;;;;;;10.50;8.25;;;;;15.64;60.37;102100.22;5049523;28;45449;-69
2022/05/07 01:05:45;;;;;;;;;16.25;9.75;;;;;15.61;60.20;102102.06;5050517;28;45453;-69
2022/05/07 01:08:12;;;;;;;;;10.50;10.00;;;;;15.60;59.81;102092.47;5049867;28;45508;-69
2022/05/07 01:10:38;;;;;;;;;13.00;13.00;;;;;15.59;60.52;102093.38;5047288;28;46499;-68
2022/05/07 01:13:04;;;;;;;;;14.75;12.75;;;;;15.58;60.61;102096.88;5047250;28;45652;-68
2022/05/07 01:15:30;;;;;;;;;12.00;8.75;;;;;15.55;61.34;102102.19;5049303;28;45445;-68
2022/05/07 01:17:56;;;;;;;;;13.00;12.00;;;;;15.56;60.66;102096.03;5050061;28;45355;-66
2022/05/07 01:20:21;;;;;;;;;12.25;12.25;;;;;15.58;60.75;102097.72;5048491;28;45511;-67
2022/05/07 01:22:47;;;;;;;;;17.50;13.50;;;;;15.57;60.12;102097.75;5048717;28;45390;-67
2022/05/07 01:25:13;;;;;;;;;15.50;13.00;;;;;15.55;60.10;102086.47;5045328;28;45657;-67
2022/05/07 01:27:38;;;;;;;;;11.00;10.00;;;;;15.60;59.73;102098.56;5047798;28;45544;-67
2022/05/07 01:30:04;;;;;;;;;16.75;11.75;;;;;15.60;60.55;102097.72;5046383;28;45680;-67
2022/05/07 01:32:30;;;;;;;;;16.50;13.25;;;;;15.57;60.61;102085.53;5047222;28;45398;-66
2022/05/07 01:34:55;;;;;;;;;13.00;10.25;;;;;15.60;60.03;102095.94;5045982;28;45671;-66
2022/05/07 01:37:21;;;;;;;;;14.75;11.25;;;;;15.55;60.47;102087.31;5048297;28;45857;-67
2022/05/07 01:39:46;;;;;;;;;15.50;10.00;;;;;15.53;60.06;102090.00;5045502;28;46065;-67
2022/05/07 01:42:12;;;;;;;;;11.50;10.75;;;;;15.58;59.58;102087.25;5051328;28;45456;-67
2022/05/07 01:44:38;;;;;;;;;13.25;9.25;;;;;15.59;59.72;102096.84;5048704;28;45248;-67
2022/05/07 01:49:47;;;;;;;;;14.00;10.50;;;;;15.61;59.64;102094.19;5047424;28;45334;-67
2022/05/07 01:52:13;;;;;;;;;15.25;13.00;;;;;15.61;60.48;102091.56;5048861;28;45256;-66
2022/05/07 01:54:39;;;;;;;;;13.00;10.25;;;;;15.55;60.41;102097.81;5047059;28;45841;-66
2022/05/07 01:57:05;;;;;;;;;13.50;13.50;;;;;15.46;60.31;102087.59;5048986;28;45748;-68
2022/05/07 01:59:30;;;;;;;;;14.50;12.00;;;;;15.39;61.16;102081.63;5047772;28;45288;-68
2022/05/07 02:01:56;;;;;;;;;16.00;12.75;;;;;15.38;60.40;102084.28;5049198;28;45300;-67
2022/05/07 02:04:21;;;;;;;;;9.00;7.25;;;;;15.37;60.37;102077.31;5047258;28;45391;-67
2022/05/07 02:06:46;;;;;;;;;10.25;9.00;;;;;15.37;60.31;102087.81;5047919;28;45463;-67
2022/05/07 02:09:12;;;;;;;;;15.50;13.00;;;;;15.33;61.13;102084.41;5048327;28;46986;-67
2022/05/07 02:11:37;;;;;;;;;12.50;12.50;;;;;15.28;60.98;102085.44;5048927;28;45491;-67
2022/05/07 02:14:02;;;;;;;;;8.75;8.50;;;;;15.23;62.50;102082.09;5046653;28;45527;-67
2022/05/07 02:16:28;;;;;;;;;13.25;10.00;;;;;15.15;62.53;102095.34;5050316;28;45624;-67
2022/05/07 02:18:53;;;;;;;;;10.00;8.75;;;;;15.08;61.97;102080.69;5046622;28;46330;-67
2022/05/07 02:21:18;;;;;;;;;16.00;11.25;;;;;15.03;62.67;102083.44;5047838;28;45392;-67
2022/05/07 02:23:44;;;;;;;;;6.50;5.25;;;;;15.02;61.75;102086.09;5042223;28;45467;-67
2022/05/07 02:26:09;;;;;;;;;13.25;11.25;;;;;14.98;62.24;102084.44;5040521;28;45514;-68
2022/05/07 02:28:37;;;;;;;;;14.00;8.00;;;;;14.97;62.84;102087.94;5040124;28;45539;-69
2022/05/07 02:31:02;;;;;;;;;14.25;13.75;;;;;14.93;62.55;102081.94;5039752;28;45876;-70
2022/05/07 02:33:27;;;;;;;;;12.50;9.50;;;;;14.97;62.11;102082.72;5040623;28;45299;-69
2022/05/07 02:35:53;;;;;;;;;15.75;11.75;;;;;14.98;62.45;102089.66;5040431;28;45269;-68
2022/05/07 02:38:18;;;;;;;;;12.75;8.75;;;;;14.96;63.29;102094.06;5039197;28;47089;-67
2022/05/07 02:43:28;;;;;;;;;16.50;13.00;;;;;14.83;64.08;102083.06;5046681;28;45360;-68
2022/05/07 02:45:53;;;;;;;;;13.00;12.00;;;;;14.73;64.70;102079.78;5040034;28;45211;-68
2022/05/07 02:48:18;;;;;;;;;14.50;10.75;;;;;14.65;65.00;102081.72;5040094;28;46647;-68
2022/05/07 02:50:44;;;;;;;;;15.50;13.00;;;;;14.59;66.14;102089.69;5039896;28;45279;-68
2022/05/07 02:53:09;;;;;;;;;17.25;13.50;;;;;14.53;64.83;102087.22;5040581;28;45426;-68
2022/05/07 02:55:34;;;;;;;;;15.75;13.00;;;;;14.52;65.88;102082.88;5040423;28;45280;-68
2022/05/07 02:58:01;;;;;;;;;12.00;10.75;;;;;14.50;65.81;102092.53;5039599;28;45349;-68
2022/05/07 03:00:26;;;;;;;;;15.75;13.00;;;;;14.50;64.63;102084.69;5039832;28;45433;-68
2022/05/07 03:02:51;;;;;;;;;14.75;13.00;;;;;14.54;64.69;102079.34;5040128;28;45401;-67
2022/05/07 03:05:16;;;;;;;;;11.50;8.50;;;;;14.57;64.72;102083.63;5038676;28;46092;-68
2022/05/07 03:07:42;;;;;;;;;16.00;12.25;;;;;14.54;64.99;102083.72;5039656;28;45311;-67
2022/05/07 03:10:07;;;;;;;;;12.50;12.50;;;;;14.51;66.37;102078.56;5040110;28;45259;-66
2022/05/07 03:12:33;;;;;;;;;16.50;14.50;;;;;14.43;67.63;102080.47;5039675;28;45379;-66
2022/05/07 03:14:58;;;;;;;;;15.25;12.00;;;;;14.36;67.94;102081.47;5039856;28;45303;-67
2022/05/07 03:17:26;;;;;;;;;13.00;11.50;;;;;14.27;66.79;102078.16;5039716;28;45383;-67
2022/05/07 03:19:52;;;;;;;;;15.25;14.00;;;;;14.32;66.83;102078.91;5045275;28;45846;-67
2022/05/07 03:22:17;;;;;;;;;13.75;13.25;;;;;14.35;67.96;102080.59;5039618;28;45261;-67
2022/05/07 03:24:42;;;;;;;;;17.25;10.50;;;;;14.30;68.18;102077.22;5039901;28;45398;-68
2022/05/07 03:27:08;;;;;;;;;18.00;15.75;;;;;14.24;68.24;102069.53;5038833;28;45416;-67
2022/05/07 03:29:33;;;;;;;;;13.00;12.25;;;;;14.15;68.40;102069.72;5038098;28;45293;-67
2022/05/07 03:31:59;;;;;;;;;14.00;13.25;;;;;14.16;68.49;102076.66;5039586;28;45250;-67
2022/05/07 03:34:24;;;;;;;;;16.00;12.00;;;;;14.16;68.06;102081.88;5038301;28;45208;-67
2022/05/07 03:36:50;;;;;;;;;19.00;14.25;;;;;14.15;69.51;102075.78;5037936;28;47196;-67
2022/05/07 03:39:16;;;;;;;;;16.00;13.00;;;;;14.13;69.01;102082.81;5039575;28;45344;-67
2022/05/07 03:41:41;;;;;;;;;18.75;13.00;;;;;14.13;68.25;102072.34;5039003;28;45771;-68
2022/05/07 03:44:06;;;;;;;;;15.00;12.25;;;;;14.12;70.01;102065.41;5045572;28;45638;-68
2022/05/07 03:46:32;;;;;;;;;20.00;15.50;;;;;14.11;69.72;102081.13;5039143;28;45398;-69
2022/05/07 03:48:57;;;;;;;;;14.50;12.75;;;;;14.05;70.76;102079.50;5038340;28;45854;-69
2022/05/07 03:51:22;;;;;;;;;17.00;13.00;;;;;14.04;69.27;102067.34;5039421;28;45273;-67
2022/05/07 03:53:48;;;;;;;;;19.25;12.00;;;;;14.08;70.44;102065.50;5039168;28;45426;-68
2022/05/07 03:56:14;;;;;;;;;16.00;13.75;;;;;14.10;70.54;102074.19;5038807;28;46543;-68
2022/05/07 03:58:40;;;;;;;;;14.75;12.00;;;;;14.02;69.90;102066.50;5039002;28;45284;-68
2022/05/07 04:01:08;;;;;;;;;17.50;12.00;;;;;13.98;71.85;102068.28;5039248;28;45340;-68
2022/05/07 04:03:33;;;;;;;;;19.75;15.25;;;;;13.95;71.86;102072.72;5038035;28;45742;-68
2022/05/07 04:05:59;;;;;;;;;18.00;14.00;;;;;13.92;70.44;102076.28;5038804;28;45600;-67
2022/05/07 04:08:24;;;;;;;;;12.25;10.50;;;;;13.93;71.30;102072.75;5037616;28;45599;-68
2022/05/07 04:10:51;;;;;;;;;16.00;14.00;;;;;13.93;70.70;102064.06;5037517;28;46203;-70
2022/05/07 04:13:16;;;;;;;;;16.75;12.25;;;;;13.93;71.58;102054.47;5039142;28;45208;-69
2022/05/07 04:15:45;;;;;;;;;20.50;14.50;;;;;13.94;70.94;102060.56;5038789;28;45886;-69
2022/05/07 04:18:12;;;;;;;;;22.00;17.75;;;;;13.95;70.38;102057.91;5041162;28;45900;-68
2022/05/07 04:20:38;;;;;;;;;19.00;14.25;;;;;13.98;70.22;102056.97;5041835;28;45322;-68
2022/05/07 04:23:04;;;;;;;;;16.00;15.00;;;;;13.93;71.97;102057.09;5045410;28;46106;-69
2022/05/07 04:25:30;;;;;;;;;15.25;14.00;;;;;13.92;71.99;102062.34;5040520;28;45611;-66
2022/05/07 04:27:55;;;;;;;;;20.75;17.25;;;;;13.89;72.41;102078.09;5039384;28;45293;-67
2022/05/07 04:30:22;;;;;;;;;9.50;7.25;;;;;13.82;72.51;102066.03;5038715;28;45297;-67
2022/05/07 04:32:47;;;;;;;;;23.00;17.00;;;;;13.83;71.10;102062.53;5037406;28;45850;-69
2022/05/07 04:35:13;;;;;;;;;17.25;15.00;;;;;13.86;72.07;102070.31;5038543;28;45224;-67
2022/05/07 04:37:38;;;;;;;;;20.25;14.25;;;;;13.84;71.95;102070.34;5039012;28;45403;-67
2022/05/07 04:40:04;;;;;;;;;16.25;14.25;;;;;13.83;71.02;102067.78;5039015;28;45246;-67
2022/05/07 04:42:30;;;;;;;;;22.00;15.25;;;;;13.87;71.35;102065.06;5042422;28;45366;-67
2022/05/07 04:44:55;;;;;;;;;20.00;16.25;;;;;13.88;72.38;102065.91;5041154;28;46350;-67
2022/05/07 04:47:20;;;;;;;;;24.00;19.25;;;;;13.81;72.85;102070.38;5038816;28;45339;-66
2022/05/07 04:49:46;;;;;;;;;23.75;17.25;;;;;13.82;72.83;102071.28;5039366;28;45430;-66
2022/05/07 04:52:11;;;;;;;;;22.75;19.00;;;;;13.81;73.36;102073.00;5038623;28;45379;-67
2022/05/07 04:54:38;;;;;;;;;23.50;16.50;;;;;13.77;73.12;102070.47;5040595;28;45457;-67
2022/05/07 04:57:04;;;;;;;;;22.00;17.00;;;;;13.72;72.98;102062.75;5046901;28;45166;-67
2022/05/07 04:59:30;;;;;;;;;26.25;21.25;;;;;13.72;74.62;102060.13;5050298;28;45443;-67
2022/05/07 05:01:56;;;;;;;;;25.50;18.00;;;;;13.72;73.69;102059.25;5051665;28;45574;-64
2022/05/07 05:04:21;;;;;;;;;21.50;15.50;;;;;13.72;73.63;102062.75;5041788;28;46133;-64
2022/05/07 05:06:47;;;;;;;;;19.00;18.25;;;;;13.72;73.54;102054.91;5041932;28;45310;-64
2022/05/07 05:09:12;;;;;;;;;20.00;15.00;;;;;13.74;73.14;102062.72;5040570;28;45621;-66
2022/05/07 05:11:38;;;;;;;;;23.00;21.00;;;;;13.76;72.71;102067.00;5041799;28;45360;-64
2022/05/07 05:16:48;;;;;;;;;22.50;15.25;;;;;13.85;72.38;102053.78;5041786;28;45835;-65
2022/05/07 05:19:13;;;;;;;;;23.25;15.00;;;;;13.94;72.60;102060.56;5046014;28;45507;-65
2022/05/07 05:21:39;;;;;;;;;20.50;15.00;;;;;13.96;72.16;102066.63;5040213;28;45372;-64
2022/05/07 05:24:04;;;;;;;;;17.75;15.25;;;;;14.03;71.88;102064.75;5041186;28;45315;-66
2022/05/07 05:26:30;;;;;;;;;19.50;14.25;;;;;14.10;71.73;102056.75;5041356;28;45435;-65
2022/05/07 05:28:55;;;;;;;;;22.00;19.25;;;;;14.18;71.87;102052.19;5041091;28;45396;-65
2022/05/07 05:31:21;;;;;;;;;21.50;16.50;;;;;14.17;72.28;102053.09;5041512;28;45310;-66
2022/05/07 05:33:46;;;;;;;;;23.00;17.25;;;;;14.20;71.86;102066.09;5040937;28;45421;-66
2022/05/07 05:36:12;;;;;;;;;32.50;23.25;;;;;14.23;71.51;102055.59;5041418;28;45298;-64
2022/05/07 05:38:38;;;;;;;;;23.50;17.25;;;;;14.27;72.51;102053.78;5041196;28;45389;-63
2022/05/07 05:41:04;;;;;;;;;24.25;20.50;;;;;14.26;72.26;102070.34;5040886;28;45440;-65
2022/05/07 05:43:29;;;;;;;;;25.00;16.50;;;;;14.24;72.25;102065.16;5045928;28;45702;-67
2022/05/07 05:45:56;;;;;;;;;30.50;21.75;;;;;14.22;72.69;102061.72;5040825;28;45312;-65
2022/05/07 05:48:21;;;;;;;;;25.00;22.00;;;;;14.22;72.82;102071.31;5040909;28;45162;-65
2022/05/07 05:50:46;;;;;;;;;19.75;16.75;;;;;14.23;72.23;102073.03;5040934;28;45509;-65
2022/05/07 05:53:12;;;;;;;;;23.25;20.75;;;;;14.31;71.89;102071.97;5040571;28;45336;-66
2022/05/07 05:55:37;;;;;;;;;21.25;16.50;;;;;14.33;72.27;102069.31;5048915;28;45698;-66
2022/05/07 05:58:02;;;;;;;;;26.50;24.50;;;;;14.34;71.97;102071.03;5043269;28;45162;-66
2022/05/07 06:00:28;;;;;;;;;23.75;19.25;;;;;14.43;71.50;102072.63;5040568;28;45236;-66
2022/05/07 06:02:53;;;;;;;;;29.00;24.25;;;;;14.51;71.99;102070.69;5040202;28;45533;-66
2022/05/07 06:05:19;;;;;;;;;36.00;26.50;;;;;14.50;72.04;102071.59;5049232;28;45437;-66
2022/05/07 06:07:44;;;;;;;;;23.00;19.00;;;;;14.46;72.22;102065.59;5048828;28;45323;-66
2022/05/07 06:10:10;;;;;;;;;23.25;20.50;;;;;14.49;72.18;102068.13;5041199;28;45494;-66
2022/05/07 06:12:35;;;;;;;;;33.75;23.75;;;;;14.52;72.29;102067.19;5040118;28;45351;-66
2022/05/07 06:15:01;;;;;;;;;26.25;21.00;;;;;14.54;71.86;102060.16;5040521;28;45276;-66
2022/05/07 06:17:26;;;;;;;;;26.25;20.50;;;;;14.68;71.68;102065.94;5045835;28;45346;-66
2022/05/07 06:19:52;;;;;;;;;23.50;17.00;;;;;14.68;71.82;102070.31;5049104;28;45573;-67
2022/05/07 06:22:18;;;;;;;;;23.75;19.00;;;;;14.71;71.37;102081.56;5049955;28;45409;-67
2022/05/07 06:27:33;;;;;;;;;29.00;20.25;;;;;14.73;71.59;102081.53;5046003;28;45445;-66
2022/05/07 06:29:59;;;;;;;;;27.00;18.00;;;;;14.70;72.35;102090.31;5052342;28;46560;-67
2022/05/07 06:32:35;;;;;;;;;31.00;23.00;;;;;14.69;72.33;102099.06;5040426;28;45399;-66
2022/05/07 06:35:05;;;;;;;;;25.75;20.25;;;;;14.76;72.02;102110.25;5040081;28;45472;-66
2022/05/07 06:37:34;;;;;;;;;18.50;14.50;;;;;14.71;72.96;102107.75;5047990;28;45339;-66
2022/05/07 06:40:01;;;;;;;;;21.25;18.50;;;;;14.69;72.34;102104.31;5050838;28;45387;-66
2022/05/07 06:42:26;;;;;;;;;28.25;21.00;;;;;14.78;72.26;102101.47;5050213;28;45470;-66
2022/05/07 06:44:52;;;;;;;;;27.25;18.50;;;;;14.87;72.58;102118.72;5047705;28;46470;-66
2022/05/07 06:47:18;;;;;;;;;30.00;25.50;;;;;14.78;71.97;102114.53;5050115;28;45497;-66
2022/05/07 06:49:43;;;;;;;;;22.50;19.25;;;;;14.80;72.20;102115.38;5047595;28;45601;-66
2022/05/07 06:52:10;;;;;;;;;28.25;25.00;;;;;14.87;72.21;102116.97;5048557;28;46430;-66
2022/05/07 06:54:35;;;;;;;;;23.50;17.25;;;;;15.01;71.70;102119.25;5052387;28;45953;-66
2022/05/07 06:57:03;;;;;;;;;28.00;20.25;;;;;15.03;71.61;102114.84;5039975;28;45335;-68
2022/05/07 06:59:29;;;;;;;;;27.75;23.00;;;;;15.03;71.67;102114.84;5040484;28;45399;-67
2022/05/07 07:01:55;;;;;;;;;25.75;17.25;;;;;14.99;71.63;102110.56;5048715;28;45515;-66
2022/05/07 07:04:21;;;;;;;;;26.25;20.50;;;;;14.91;72.01;102121.22;5049720;28;45431;-67
2022/05/07 07:06:46;;;;;;;;;26.00;20.75;;;;;14.95;72.25;102122.00;5049648;28;45487;-66
2022/05/07 07:09:12;;;;;;;;;22.75;17.75;;;;;14.98;72.26;102111.47;5045481;28;45572;-66
2022/05/07 07:11:37;;;;;;;;;20.75;19.50;;;;;15.00;71.94;102114.03;5048291;28;46585;-65
2022/05/07 07:14:03;;;;;;;;;23.75;19.50;;;;;15.16;71.74;102116.25;5046258;28;45444;-65
2022/05/07 07:16:29;;;;;;;;;29.25;21.50;;;;;15.31;71.16;102111.53;5049822;28;45527;-65
2022/05/07 07:18:55;;;;;;;;;21.00;16.75;;;;;15.40;70.56;102120.00;5049962;28;45375;-65
2022/05/07 07:21:20;;;;;;;;;27.50;19.75;;;;;15.44;70.26;102110.34;5039394;28;45220;-65
2022/05/07 07:23:46;;;;;;;;;30.25;23.75;;;;;15.46;70.30;102109.41;5039449;28;45421;-65
2022/05/07 07:26:12;;;;;;;;;29.25;20.50;;;;;15.53;70.24;102110.94;5039433;28;45327;-65
2022/05/07 07:28:37;;;;;;;;;23.25;20.75;;;;;15.58;70.22;102110.81;5039167;28;45248;-66
2022/05/07 07:31:03;;;;;;;;;28.00;21.00;;;;;15.60;70.10;102116.91;5039644;28;45436;-66
2022/05/07 07:33:28;;;;;;;;;20.50;16.25;;;;;15.66;69.92;102114.16;5040128;28;46019;-66
2022/05/07 07:35:54;;;;;;;;;19.50;18.25;;;;;15.70;69.73;102113.16;5045763;28;45354;-66
2022/05/07 07:38:19;;;;;;;;;29.00;20.50;;;;;15.80;69.63;102113.75;5045953;28;45284;-66
2022/05/07 07:40:49;;;;;;;;;30.50;21.25;;;;;15.85;69.48;102127.63;5046568;28;45517;-66
2022/05/07 07:43:16;;;;;;;;;26.00;20.50;;;;;15.89;69.04;102117.91;5042436;28;45788;-66
2022/05/07 07:48:25;;;;;;;;;22.00;19.75;;;;;16.08;68.45;102113.88;5039214;28;45241;-66
2022/05/07 07:50:51;;;;;;;;;31.75;22.50;;;;;16.21;68.55;102130.09;5039319;28;45340;-67
2022/05/07 07:53:16;;;;;;;;;24.00;21.00;;;;;16.29;68.13;102117.63;5040024;28;45232;-67
2022/05/07 07:55:42;;;;;;;;;25.75;23.50;;;;;16.38;67.99;102112.09;5039243;28;45300;-67
2022/05/07 07:58:09;;;;;;;;;24.75;20.25;;;;;16.49;67.62;102111.81;5038510;28;45158;-66
2022/05/07 08:00:36;;;;;;;;;24.50;23.25;;;;;16.60;67.36;102113.16;5038783;28;45315;-66
2022/05/07 08:03:09;;;;;;;;;26.00;21.00;;;;;16.56;67.02;102122.06;5037408;28;46078;-66
2022/05/07 08:05:36;;;;;;;;;25.25;20.25;;;;;16.53;66.90;102109.03;5039134;28;45363;-66
2022/05/07 08:13:34;;;;;;;;;22.00;16.25;;;;;16.64;66.65;102101.69;5047059;28;45342;-65
2022/05/07 08:16:03;;;;;;;;;25.75;18.50;;;;;16.75;66.41;102100.53;5049496;28;45433;-65
2022/05/07 08:18:29;;;;;;;;;26.25;20.75;;;;;16.76;66.12;102105.72;5049480;28;45466;-65
2022/05/07 08:20:55;;;;;;;;;23.50;19.00;;;;;16.82;65.99;102107.28;5038788;28;46237;-65
2022/05/07 08:23:22;;;;;;;;;28.50;20.00;;;;;16.92;66.00;102108.72;5039009;28;45789;-65
2022/05/07 08:25:48;;;;;;;;;24.75;18.50;;;;;16.97;65.82;102106.81;5038769;28;45304;-65
2022/05/07 08:28:15;;;;;;;;;22.50;15.75;;;;;17.11;65.60;102109.00;5039112;28;45263;-66
2022/05/07 08:30:40;;;;;;;;;21.75;19.75;;;;;17.22;65.06;102107.75;5042012;28;46769;-66
2022/05/07 08:33:06;;;;;;;;;23.50;18.00;;;;;17.40;64.75;102110.63;5042463;28;45264;-66
2022/05/07 08:35:31;;;;;;;;;23.25;18.00;;;;;17.50;64.33;102106.78;5042471;28;45267;-66
2022/05/07 08:37:57;;;;;;;;;21.25;19.75;;;;;17.53;63.96;102104.91;5042357;28;45224;-65
2022/05/07 08:40:24;;;;;;;;;20.00;17.00;;;;;17.63;64.38;102108.09;5041824;28;46743;-65
2022/05/07 08:42:50;;;;;;;;;23.25;17.50;;;;;17.78;63.65;102112.81;5047831;28;45317;-66
2022/05/07 08:45:16;;;;;;;;;18.25;17.25;;;;;18.03;63.21;102106.69;5051455;28;45461;-66
2022/05/07 08:47:42;;;;;;;;;27.75;18.50;;;;;18.19;62.87;102105.19;5045127;28;45429;-66
2022/05/07 08:50:10;;;;;;;;;25.50;16.50;;;;;18.33;62.53;102104.69;5041786;28;46343;-66
2022/05/07 08:52:41;;;;;;;;;19.75;18.00;;;;;18.42;62.23;102101.69;5040637;28;45319;-67
2022/05/07 08:55:09;;;;;;;;;23.25;18.25;;;;;18.51;61.04;102102.19;5041627;28;45336;-66
2022/05/07 08:57:35;;;;;;;;;16.75;14.00;;;;;18.60;60.11;102103.59;5040090;28;45464;-67
2022/05/07 09:00:01;;;;;;;;;25.25;19.50;;;;;18.65;61.36;102111.38;5041632;28;45345;-66
2022/05/07 09:02:26;;;;;;;;;19.25;17.00;;;;;18.65;60.61;102106.13;5041825;28;45289;-65
2022/05/07 09:04:58;;;;;;;;;20.75;17.25;;;;;18.69;60.71;102111.19;5041992;28;45167;-66
2022/05/07 09:07:24;;;;;;;;;16.25;14.00;;;;;18.70;60.78;102115.53;5041725;28;45293;-66
2022/05/07 09:09:51;;;;;;;;;17.50;17.00;;;;;18.68;60.23;102108.63;5041854;28;46157;-64
2022/05/07 09:12:28;;;;;;;;;20.25;17.50;;;;;18.69;60.07;102100.66;5041481;28;45862;-66
2022/05/07 09:14:59;;;;;;;;;14.50;14.50;;;;;18.61;60.03;102099.19;5055223;28;45406;-65
2022/05/07 09:17:25;;;;;;;;;14.50;11.25;;;;;18.59;59.97;102094.00;5045475;28;45356;-65
2022/05/07 09:19:50;;;;;;;;;19.75;19.25;;;;;18.51;60.59;102099.56;5038329;28;46429;-65
2022/05/07 09:22:16;;;;;;;;;18.00;13.75;;;;;18.48;60.07;102104.09;5040935;28;45291;-67
2022/05/07 09:24:55;;;;;;;;;18.00;15.00;;;;;18.46;60.28;102095.41;5041648;28;45324;-66
2022/05/07 09:27:24;;;;;;;;;21.00;15.00;;;;;18.60;60.47;102089.59;5040781;28;45585;-66
2022/05/07 09:29:59;;;;;;;;;16.00;12.75;;;;;18.86;58.92;102083.34;5038671;28;45635;-65
2022/05/07 09:32:36;;;;;;;;;15.00;14.00;;;;;19.08;59.47;102090.28;5038666;28;45400;-65
2022/05/07 09:38:01;;;;;;;;;17.25;13.50;;;;;19.49;59.20;102086.81;5031095;28;45574;-65
2022/05/07 09:40:31;;;;;;;;;17.50;13.00;;;;;19.58;58.62;102087.28;5039530;28;46550;-65
2022/05/07 09:42:59;;;;;;;;;16.75;15.25;;;;;19.63;57.86;102080.06;5040368;28;45616;-65
2022/05/07 09:45:28;;;;;;;;;14.25;13.75;;;;;19.81;57.95;102085.41;5038680;28;46326;-66
2022/05/07 09:48:00;;;;;;;;;19.00;17.75;;;;;20.09;57.47;102085.06;5046419;28;45390;-67
2022/05/07 09:50:44;;;;;;;;;15.75;13.75;;;;;20.30;56.82;102078.78;5041246;28;46381;-66
2022/05/07 09:58:41;;;;;;;;;18.50;17.25;;;;;20.47;56.41;102083.31;5031093;28;45373;-65
2022/05/07 10:01:21;;;;;;;;;12.50;10.50;;;;;20.54;56.34;102080.28;5041016;28;46247;-65
2022/05/07 10:03:47;;;;;;;;;27.25;22.50;;;;;20.57;54.78;102081.91;5040900;28;45318;-65
2022/05/07 10:06:21;;;;;;;;;15.50;13.25;;;;;20.57;55.66;102076.63;5040984;28;45222;-63
2022/05/07 10:09:02;;;;;;;;;19.00;15.25;;;;;20.57;54.77;102072.22;5040695;28;45407;-63
2022/05/07 10:11:28;;;;;;;;;20.25;13.25;;;;;20.71;55.04;102068.06;5068553;28;47216;-63
2022/05/07 10:13:54;;;;;;;;;15.25;13.00;;;;;20.92;55.08;102080.22;5034818;28;46179;-63
2022/05/07 10:16:23;;;;;;;;;12.25;10.75;;;;;21.06;53.96;102080.38;5036471;28;46504;-64
2022/05/07 10:18:49;;;;;;;;;14.75;12.25;;;;;21.13;53.05;102086.22;5034863;28;45297;-64
2022/05/07 10:21:17;;;;;;;;;17.25;13.25;;;;;21.02;52.58;102084.09;5039945;28;46316;-66
2022/05/07 10:23:52;;;;;;;;;15.25;13.75;;;;;21.00;53.00;102069.25;5040449;28;45343;-66
2022/05/07 10:26:20;;;;;;;;;14.50;14.25;;;;;21.02;53.87;102085.88;5039982;28;45400;-67
2022/05/07 10:28:45;;;;;;;;;15.25;14.50;;;;;21.17;53.46;102080.69;5051853;28;45325;-67
2022/05/07 10:31:24;;;;;;;;;18.25;13.50;;;;;21.30;52.57;102072.19;5041616;28;45392;-68
2022/05/07 10:33:51;;;;;;;;;22.25;18.00;;;;;21.33;52.68;102077.31;5040469;28;45758;-68
2022/05/07 10:36:17;;;;;;;;;16.25;13.75;;;;;21.41;51.94;102078.59;5044788;28;45359;-66
2022/05/07 10:38:45;;;;;;;;;17.75;15.75;;;;;21.48;52.83;102072.09;5040338;28;45328;-66
2022/05/07 10:41:17;;;;;;;;;12.25;10.25;;;;;21.59;52.25;102075.94;5040211;28;46655;-68
2022/05/07 10:44:06;;;;;;;;;17.00;12.50;;;;;21.58;51.95;102074.25;5039881;28;45332;-66
2022/05/07 10:46:40;;;;;;;;;9.25;9.25;;;;;21.55;51.67;102073.47;5032220;28;45342;-69
2022/05/07 10:49:05;;;;;;;;;21.50;15.25;;;;;21.50;51.95;102064.06;5040101;28;45475;-67
2022/05/07 10:51:39;;;;;;;;;18.00;15.75;;;;;21.47;51.89;102075.66;5039367;28;46259;-68
2022/05/07 10:54:21;;;;;;;;;17.00;13.00;;;;;21.48;51.91;102072.09;5027961;28;45640;-66
2022/05/07 10:56:48;;;;;;;;;16.75;14.00;;;;;21.58;51.37;102068.94;5040040;28;45461;-67
2022/05/07 10:59:14;;;;;;;;;17.25;14.25;;;;;21.64;51.55;102068.66;5039859;28;45510;-66
2022/05/07 11:01:39;;;;;;;;;13.50;9.25;;;;;21.66;51.40;102069.41;5040227;28;46862;-66
2022/05/07 11:04:07;;;;;;;;;17.50;15.25;;;;;21.68;51.93;102071.03;5040016;28;45336;-66
2022/05/07 11:06:44;;;;;;;;;16.00;15.75;;;;;21.74;51.69;102061.91;5038570;28;45179;-65
2022/05/07 11:09:24;;;;;;;;;17.75;13.75;;;;;21.74;50.92;102065.41;5043267;28;46041;-64
2022/05/07 11:11:54;;;;;;;;;14.00;14.00;;;;;21.73;51.27;102066.34;5027117;28;45489;-68
2022/05/07 11:14:26;;;;;;;;;14.25;12.25;;;;;21.72;50.62;102055.84;5028096;28;45511;-67
2022/05/07 11:16:56;;;;;;;;;17.25;12.75;;;;;21.74;50.95;102059.28;5039435;28;45509;-67
2022/05/07 11:19:29;;;;;;;;;13.00;12.75;;;;;21.69;51.00;102058.66;5039586;28;45500;-66
2022/05/07 11:21:56;;;;;;;;;17.25;14.25;;;;;21.65;51.34;102049.19;5039341;28;45361;-67
2022/05/07 11:24:25;;;;;;;;;15.00;14.00;;;;;21.71;51.12;102054.16;5039565;28;45347;-67
2022/05/07 11:26:58;;;;;;;;;18.75;16.00;;;;;21.82;50.42;102054.41;5039430;28;45226;-67
2022/05/07 11:29:25;;;;;;;;;17.50;16.25;;;;;21.90;51.10;102051.38;5039266;28;45186;-67
2022/05/07 11:32:07;;;;;;;;;20.00;17.50;;;;;21.90;50.08;102043.44;5034682;28;46181;-67
2022/05/07 11:34:40;;;;;;;;;18.00;16.25;;;;;21.88;51.07;102043.50;5038082;28;45520;-68
2022/05/07 11:37:20;;;;;;;;;17.50;12.50;;;;;21.93;50.26;102043.25;5039327;28;45364;-67
2022/05/07 11:39:54;;;;;;;;;19.25;15.25;;;;;21.87;50.41;102041.81;5039553;28;45253;-67
2022/05/07 11:42:36;;;;;;;;;17.00;13.50;;;;;21.93;49.86;102041.47;5039045;28;46981;-68
2022/05/07 11:45:26;;;;;;;;;14.75;13.50;;;;;22.00;50.55;102047.28;5039067;28;45334;-65